Time;durP1;ratioP1;P1;durP2;ratioP2;P2;SDS_P1;SDS_P2;PMS_P1;PMS_P2;Temp;Humidity;BMP_temperature;BMP_pressure;BME280_temperature;BME280_humidity;BME280_pressure;Samples;Min_cycle;Max_cycle;Signal;HPM_P1;HPM_P2
2022/01/15 00:01:31;;;;;;;110.43;25.52;;;;;;;2.37;98.84;103230.22;5023781;28;20367;-74
2022/01/15 00:03:56;;;;;;;95.78;25.80;;;;;;;2.40;98.83;103235.59;5023651;28;20037;-74
2022/01/15 00:06:22;;;;;;;106.22;27.27;;;;;;;2.39;98.95;103229.31;5025721;28;20524;-75
2022/01/15 00:08:47;;;;;;;113.80;24.95;;;;;;;2.37;98.77;103223.03;5028398;28;20401;-75
2022/01/15 00:11:12;;;;;;;105.75;24.77;;;;;;;2.38;98.89;103227.53;5025309;28;20025;-74
2022/01/15 00:13:41;;;;;;;114.00;25.88;;;;;;;2.38;98.79;103232.00;5024608;28;20084;-75
2022/01/15 00:16:10;;;;;;;102.70;26.80;;;;;;;2.33;98.79;103231.09;5027734;28;20025;-75
2022/01/15 00:18:48;;;;;;;121.40;25.65;;;;;;;2.31;98.96;103225.75;5022069;28;20433;-75
2022/01/15 00:21:14;;;;;;;128.57;26.98;;;;;;;2.30;98.95;103224.84;5038993;28;20026;-75
2022/01/15 00:23:40;;;;;;;120.82;26.13;;;;;;;2.27;99.10;103221.25;5028318;28;20047;-74
2022/01/15 00:26:06;;;;;;;146.40;27.48;;;;;;;2.26;99.22;103216.78;5029085;28;20025;-75
2022/01/15 00:28:31;;;;;;;124.47;27.27;;;;;;;2.26;98.99;103212.31;5026274;28;20535;-75
2022/01/15 00:30:56;;;;;;;206.48;27.52;;;;;;;2.27;99.13;103214.09;5027401;28;20021;-75
2022/01/15 00:33:21;;;;;;;135.18;26.50;;;;;;;2.25;99.07;103209.63;5022386;28;20515;-76
2022/01/15 00:35:47;;;;;;;135.48;27.55;;;;;;;2.26;99.23;103206.94;5010038;28;20502;-75
2022/01/15 00:38:12;;;;;;;106.78;26.75;;;;;;;2.23;99.08;103209.59;5017786;28;20030;-74
2022/01/15 00:40:38;;;;;;;109.63;24.83;;;;;;;2.25;98.96;103206.94;5028453;28;20439;-75
2022/01/15 00:43:03;;;;;;;90.85;25.60;;;;;;;2.25;99.24;103209.63;5022758;28;20113;-75
2022/01/15 00:45:32;;;;;;;94.25;23.08;;;;;;;2.25;99.13;103201.56;5014158;28;20057;-74
2022/01/15 00:47:58;;;;;;;117.80;27.30;;;;;;;2.25;99.00;103197.09;5028936;28;20049;-75
2022/01/15 00:50:24;;;;;;;94.47;22.98;;;;;;;2.24;99.19;103194.44;5011836;28;20071;-75
2022/01/15 00:52:49;;;;;;;102.03;23.40;;;;;;;2.25;99.11;103194.41;5027935;28;20465;-75
2022/01/15 00:55:17;;;;;;;127.63;27.02;;;;;;;2.23;99.09;103188.13;5021197;28;20067;-75
2022/01/15 00:57:42;;;;;;;86.47;24.50;;;;;;;2.25;99.25;103177.41;5021026;28;20026;-75
2022/01/15 01:00:10;;;;;;;131.00;26.35;;;;;;;2.27;99.09;103183.66;5019531;28;20542;-75
2022/01/15 01:02:35;;;;;;;115.00;24.55;;;;;;;2.23;99.09;103172.00;5026824;28;20473;-75
2022/01/15 01:05:01;;;;;;;88.53;23.92;;;;;;;2.24;98.80;103189.06;5015266;28;20037;-75
2022/01/15 01:07:26;;;;;;;104.97;24.42;;;;;;;2.26;99.07;103179.19;5024500;28;20448;-75
2022/01/15 01:10:05;;;;;;;102.55;24.92;;;;;;;2.27;99.01;103179.19;5023132;28;20327;-74
2022/01/15 01:23:05;;;;;;;98.60;22.90;;;;;;;2.27;98.99;103172.91;5015107;28;20033;-75
2022/01/15 01:25:41;;;;;;;113.60;24.17;;;;;;;2.26;99.00;103168.44;5024445;28;20532;-74
2022/01/15 01:28:14;;;;;;;99.28;22.80;;;;;;;2.24;99.02;103159.50;5020642;28;20072;-74
2022/01/15 01:30:49;;;;;;;119.82;24.58;;;;;;;2.19;98.80;103163.97;5024119;28;20550;-74
2022/01/15 01:33:29;;;;;;;90.57;23.05;;;;;;;2.19;99.15;103158.59;5025321;28;20029;-75
2022/01/15 01:36:15;;;;;;;96.43;22.85;;;;;;;2.16;98.98;103154.13;5018431;28;20115;-74
2022/01/15 01:41:17;;;;;;;90.93;22.42;;;;;;;2.11;99.30;103158.63;5027696;28;20030;-75
2022/01/15 01:46:20;;;;;;;77.45;21.85;;;;;;;2.06;99.30;103155.03;5007905;28;20030;-75
2022/01/15 01:48:46;;;;;;;113.07;22.17;;;;;;;2.07;99.17;103148.75;5008015;28;20040;-75
2022/01/15 01:51:35;;;;;;;114.30;23.50;;;;;;;2.07;99.01;103140.72;5017668;28;20029;-75
2022/01/15 01:54:03;;;;;;;165.55;25.05;;;;;;;2.07;99.08;103140.72;5027573;28;20246;-74
2022/01/15 01:56:30;;;;;;;140.98;25.30;;;;;;;2.09;99.24;103140.69;5022823;28;20482;-74
2022/01/15 01:58:55;;;;;;;120.10;23.10;;;;;;;2.08;99.26;103138.91;5013153;28;20374;-74
2022/01/15 02:01:21;;;;;;;110.95;24.20;;;;;;;2.07;99.39;103135.34;5021552;28;20041;-75
2022/01/15 02:03:47;;;;;;;117.20;23.73;;;;;;;2.05;99.30;103137.13;5027082;28;20746;-74
2022/01/15 02:06:13;;;;;;;97.05;22.90;;;;;;;2.05;99.50;103137.13;5031636;28;20021;-75
2022/01/15 02:08:38;;;;;;;109.05;24.08;;;;;;;2.07;99.23;103127.28;5032345;28;20025;-75
2022/01/15 02:11:06;;;;;;;99.40;23.63;;;;;;;2.05;99.40;103123.69;5032213;28;20025;-75
2022/01/15 02:13:33;;;;;;;81.82;21.77;;;;;;;2.04;99.33;103129.97;5026195;28;20036;-75
2022/01/15 02:15:59;;;;;;;82.38;20.83;;;;;;;2.04;99.16;103133.53;5024679;28;20032;-75
2022/01/15 02:18:26;;;;;;;73.95;20.63;;;;;;;2.02;99.11;103131.75;5020931;28;20160;-75
2022/01/15 02:23:34;;;;;;;70.10;17.63;;;;;;;1.98;99.08;103135.34;5021822;28;20386;-74
2022/01/15 02:26:07;;;;;;;62.95;19.23;;;;;;;1.95;99.09;103135.31;5027517;28;20030;-75
2022/01/15 02:28:37;;;;;;;61.55;18.60;;;;;;;1.90;99.20;103132.66;5029634;28;20030;-75
2022/01/15 02:31:05;;;;;;;68.85;19.17;;;;;;;1.90;99.10;103129.06;5026297;28;20025;-75
2022/01/15 02:33:31;;;;;;;75.75;18.27;;;;;;;1.88;99.19;103120.13;5030270;28;20033;-75
2022/01/15 02:35:57;;;;;;;74.53;19.67;;;;;;;1.87;99.40;103108.50;5024828;28;20036;-74
2022/01/15 02:38:22;;;;;;;76.45;18.58;;;;;;;1.85;99.38;103112.97;5024619;28;20026;-75
2022/01/15 02:40:48;;;;;;;86.50;19.02;;;;;;;1.84;99.47;103116.56;5021135;28;20477;-75
2022/01/15 02:43:18;;;;;;;101.22;22.15;;;;;;;1.84;99.41;103103.13;5026254;28;20142;-76
2022/01/15 02:45:53;;;;;;;99.28;21.00;;;;;;;1.79;99.41;103095.06;5022322;28;20033;-75
2022/01/15 02:48:18;;;;;;;94.40;22.10;;;;;;;1.79;99.40;103084.34;5027542;28;20155;-75
2022/01/15 02:50:45;;;;;;;95.32;21.58;;;;;;;1.80;99.42;103079.88;5020048;28;20116;-75
2022/01/15 02:53:13;;;;;;;92.05;21.08;;;;;;;1.79;99.43;103070.94;5029446;28;20029;-74
2022/01/15 02:55:45;;;;;;;89.47;22.75;;;;;;;1.79;99.49;103064.66;5027192;28;20513;-75
2022/01/15 02:58:10;;;;;;;95.10;22.42;;;;;;;1.79;99.54;103064.66;5018048;28;20026;-74
2022/01/15 03:00:36;;;;;;;99.10;25.05;;;;;;;1.78;99.63;103073.63;5028510;28;20028;-76
2022/01/15 03:03:02;;;;;;;117.68;24.83;;;;;;;1.79;99.68;103067.34;5031571;28;20112;-74
2022/01/15 03:05:27;;;;;;;105.00;24.50;;;;;;;1.78;100.00;103060.22;5018181;28;20104;-74
2022/01/15 03:07:52;;;;;;;102.50;23.65;;;;;;;1.77;99.66;103058.38;5031175;28;20026;-75
2022/01/15 03:10:18;;;;;;;101.45;23.30;;;;;;;1.77;99.11;103053.03;5029945;28;20021;-74
2022/01/15 03:12:44;;;;;;;100.93;24.85;;;;;;;1.79;99.63;103051.25;5027618;28;20025;-74
2022/01/15 03:15:10;;;;;;;85.18;23.73;;;;;;;1.81;99.93;103045.88;5010477;28;20029;-75
2022/01/15 03:17:35;;;;;;;122.28;27.00;;;;;;;1.83;99.81;103047.69;5030944;28;20033;-74
2022/01/15 03:20:04;;;;;;;111.50;26.27;;;;;;;1.83;99.82;103046.78;5028993;28;20108;-75
2022/01/15 03:22:29;;;;;;;120.18;25.60;;;;;;;1.77;99.82;103045.91;5016074;28;20438;-75
2022/01/15 03:24:54;;;;;;;89.03;24.35;;;;;;;1.81;99.77;103051.25;5028822;28;20171;-75
2022/01/15 03:27:23;;;;;;;105.00;26.10;;;;;;;1.80;99.74;103042.28;5029212;28;20381;-75
2022/01/15 03:29:50;;;;;;;112.93;24.73;;;;;;;1.81;99.75;103041.41;5022829;28;20025;-74
2022/01/15 03:32:15;;;;;;;103.60;23.95;;;;;;;1.79;99.76;103041.41;5029996;28;20053;-75
2022/01/15 03:34:40;;;;;;;91.35;24.55;;;;;;;1.80;99.63;103044.97;5022426;28;20489;-75
2022/01/15 03:37:06;;;;;;;111.55;26.10;;;;;;;1.83;99.50;103044.09;5026190;28;20025;-75
2022/01/15 03:39:31;;;;;;;91.47;24.05;;;;;;;1.81;99.66;103041.41;5025181;28;20032;-75
2022/01/15 03:41:57;;;;;;;98.47;24.33;;;;;;;1.81;99.56;103043.19;5025233;28;20492;-75
2022/01/15 03:44:22;;;;;;;80.15;22.38;;;;;;;1.82;99.54;103040.53;5018476;28;20029;-75
2022/01/15 03:46:47;;;;;;;107.18;25.27;;;;;;;1.84;99.59;103043.19;5013402;28;20057;-75
2022/01/15 03:49:12;;;;;;;94.80;23.83;;;;;;;1.82;99.49;103037.84;5024441;28;20018;-74
2022/01/15 03:51:38;;;;;;;113.85;27.05;;;;;;;1.79;99.24;103029.78;5021790;28;20537;-75
2022/01/15 03:54:03;;;;;;;89.97;26.52;;;;;;;1.78;99.68;103020.84;5030166;28;20029;-75
2022/01/15 03:56:30;;;;;;;103.50;24.05;;;;;;;1.78;99.51;103020.84;5027746;28;20510;-75
2022/01/15 03:58:56;;;;;;;105.53;23.52;;;;;;;1.76;99.63;103014.56;5023981;28;20504;-74
2022/01/15 04:01:21;;;;;;;117.40;23.52;;;;;;;1.74;99.58;103018.16;5037804;28;20104;-75
2022/01/15 04:03:47;;;;;;;90.30;21.75;;;;;;;1.73;99.65;103016.38;5024252;28;20040;-75
2022/01/15 04:06:12;;;;;;;96.30;23.50;;;;;;;1.71;99.61;103021.72;5020073;28;20123;-75
2022/01/15 04:08:37;;;;;;;90.30;22.02;;;;;;;1.72;99.42;103027.97;5030287;28;20507;-74
2022/01/15 04:11:02;;;;;;;74.00;21.05;;;;;;;1.71;99.54;103019.03;5028144;28;20048;-75
2022/01/15 04:13:28;;;;;;;81.13;19.25;;;;;;;1.70;99.65;103014.59;5027927;28;20099;-75
2022/01/15 04:15:53;;;;;;;68.90;19.55;;;;;;;1.71;99.75;103007.41;5025922;28;20032;-75
2022/01/15 04:18:21;;;;;;;63.53;21.98;;;;;;;1.71;99.41;102999.38;5029445;28;20473;-73
2022/01/15 04:20:47;;;;;;;70.10;21.83;;;;;;;1.70;99.45;103009.22;5016375;28;20079;-74
2022/01/15 04:23:12;;;;;;;74.88;20.58;;;;;;;1.69;99.43;102995.81;5014538;28;20025;-75
2022/01/15 04:25:38;;;;;;;77.82;20.02;;;;;;;1.70;99.32;103001.16;5026884;28;20848;-76
2022/01/15 04:28:08;;;;;;;60.65;19.75;;;;;;;1.69;99.45;102998.50;5027775;28;20108;-75
2022/01/15 04:30:34;;;;;;;62.17;17.50;;;;;;;1.69;99.26;102995.81;5023610;28;20033;-74
2022/01/15 04:32:59;;;;;;;67.80;18.67;;;;;;;1.68;99.32;102994.00;5028247;28;20546;-74
2022/01/15 04:35:24;;;;;;;63.42;19.02;;;;;;;1.68;99.49;102989.56;5026487;28;20442;-75
2022/01/15 04:37:53;;;;;;;64.47;18.42;;;;;;;1.69;99.39;102980.59;5026401;28;20044;-76
2022/01/15 04:40:19;;;;;;;68.93;18.33;;;;;;;1.72;99.38;102983.25;5028725;28;20151;-74
2022/01/15 04:42:45;;;;;;;73.45;21.00;;;;;;;1.72;99.31;102975.22;5024066;28;20120;-75
2022/01/15 04:45:11;;;;;;;76.07;20.77;;;;;;;1.74;99.48;102981.50;5019903;28;20097;-75
2022/01/15 04:47:37;;;;;;;69.75;19.88;;;;;;;1.75;99.34;102977.00;5025996;28;20059;-76
2022/01/15 04:50:05;;;;;;;73.70;20.65;;;;;;;1.73;99.30;102977.03;5015646;28;20021;-76
2022/01/15 04:52:33;;;;;;;67.45;18.38;;;;;;;1.75;99.41;102977.91;5028254;28;20045;-75
2022/01/15 04:54:59;;;;;;;66.55;18.75;;;;;;;1.74;99.42;102976.13;5028296;28;20045;-75
2022/01/15 04:57:24;;;;;;;54.92;18.10;;;;;;;1.73;99.24;102977.03;5014198;28;20033;-75
2022/01/15 04:59:49;;;;;;;64.13;19.10;;;;;;;1.76;99.28;102971.63;5013674;28;20021;-76
2022/01/15 05:02:15;;;;;;;74.60;18.40;;;;;;;1.74;99.19;102962.72;5029129;28;20017;-76
2022/01/15 05:04:40;;;;;;;67.13;17.25;;;;;;;1.76;99.22;102970.75;5013869;28;20456;-75
2022/01/15 05:07:05;;;;;;;67.78;19.83;;;;;;;1.74;99.34;102965.38;5027267;28;20014;-76
2022/01/15 05:09:31;;;;;;;63.58;18.20;;;;;;;1.76;99.38;102960.00;5019621;28;20029;-75
2022/01/15 05:12:09;;;;;;;54.25;16.13;;;;;;;1.75;99.28;102960.91;5024523;28;20025;-75
2022/01/15 05:14:34;;;;;;;66.65;18.38;;;;;;;1.75;99.00;102955.56;5021567;28;20025;-76
2022/01/15 05:17:01;;;;;;;58.53;17.88;;;;;;;1.74;99.21;102948.41;5013229;28;20032;-75
2022/01/15 05:19:27;;;;;;;56.47;17.48;;;;;;;1.74;99.28;102948.41;5020739;28;20029;-75
2022/01/15 05:21:55;;;;;;;59.72;17.27;;;;;;;1.75;99.18;102947.50;5017164;28;20036;-75
2022/01/15 05:24:20;;;;;;;68.93;17.90;;;;;;;1.75;99.42;102945.69;5013082;28;20036;-75
2022/01/15 05:26:45;;;;;;;59.92;17.13;;;;;;;1.72;99.24;102932.28;5026922;28;20717;-75
2022/01/15 05:29:11;;;;;;;64.00;17.77;;;;;;;1.76;99.32;102944.81;5019631;28;20028;-75
2022/01/15 05:31:36;;;;;;;59.47;17.23;;;;;;;1.77;99.24;102941.25;5028531;28;20105;-75
2022/01/15 05:34:01;;;;;;;58.83;16.63;;;;;;;1.77;99.24;102933.19;5020717;28;20036;-76
2022/01/15 05:36:27;;;;;;;63.88;18.98;;;;;;;1.76;99.35;102925.13;5025098;28;20037;-75
2022/01/15 05:38:52;;;;;;;68.63;21.27;;;;;;;1.78;99.19;102918.88;5020284;28;20029;-75
2022/01/15 05:41:17;;;;;;;74.05;20.42;;;;;;;1.77;99.12;102916.16;5018073;28;20026;-75
2022/01/15 05:43:43;;;;;;;70.25;19.05;;;;;;;1.74;99.30;102911.72;5009442;28;20571;-75
2022/01/15 05:46:08;;;;;;;69.50;19.42;;;;;;;1.75;99.34;102910.81;5007328;28;20393;-75
2022/01/15 05:48:33;;;;;;;73.22;21.27;;;;;;;1.73;99.33;102907.25;5008174;28;20471;-75
2022/01/15 05:50:59;;;;;;;68.15;20.17;;;;;;;1.73;99.45;102912.63;5012016;28;20084;-75
2022/01/15 05:53:24;;;;;;;72.93;20.45;;;;;;;1.75;99.57;102909.94;5006700;28;20021;-75
2022/01/15 05:55:49;;;;;;;83.88;21.45;;;;;;;1.77;99.37;102903.69;5007345;28;20049;-75
2022/01/15 05:58:15;;;;;;;67.38;22.00;;;;;;;1.77;99.23;102901.00;5007640;28;20022;-75
2022/01/15 06:00:40;;;;;;;83.05;21.52;;;;;;;1.78;99.57;102904.56;5013128;28;20772;-75
2022/01/15 06:03:05;;;;;;;75.90;21.27;;;;;;;1.77;99.36;102892.03;5008272;28;20057;-75
2022/01/15 06:05:31;;;;;;;77.57;22.00;;;;;;;1.77;99.33;102889.34;5007863;28;20087;-76
2022/01/15 06:07:56;;;;;;;75.85;22.65;;;;;;;1.76;99.61;102890.25;5021813;28;20032;-75
2022/01/15 06:10:21;;;;;;;79.40;21.23;;;;;;;1.75;99.56;102889.34;5025271;28;20469;-76
2022/01/15 06:12:47;;;;;;;65.80;19.88;;;;;;;1.73;99.37;102895.66;5024953;28;20029;-75
2022/01/15 06:15:14;;;;;;;70.25;20.77;;;;;;;1.71;99.61;102892.06;5030540;28;20029;-74
2022/01/15 06:17:39;;;;;;;75.78;21.95;;;;;;;1.66;99.51;102888.50;5028198;28;20033;-74
2022/01/15 06:20:05;;;;;;;72.05;20.98;;;;;;;1.64;99.63;102884.94;5023303;28;20034;-75
2022/01/15 06:22:31;;;;;;;90.45;22.42;;;;;;;1.63;99.70;102884.03;5012440;28;20513;-75
2022/01/15 06:24:56;;;;;;;67.85;20.20;;;;;;;1.65;99.74;102889.41;5024208;28;20025;-75
2022/01/15 06:27:21;;;;;;;78.25;21.80;;;;;;;1.61;99.77;102872.41;5019920;28;20022;-75
2022/01/15 06:29:47;;;;;;;74.45;20.27;;;;;;;1.63;99.87;102880.44;5024419;28;20026;-75
2022/01/15 06:32:12;;;;;;;80.80;22.48;;;;;;;1.65;99.59;102884.03;5027428;28;20034;-74
2022/01/15 06:34:38;;;;;;;81.80;21.55;;;;;;;1.64;99.76;102875.09;5015979;28;20523;-75
2022/01/15 06:37:05;;;;;;;84.35;22.25;;;;;;;1.63;99.82;102878.69;5027821;28;20030;-75
2022/01/15 06:39:31;;;;;;;88.47;20.90;;;;;;;1.62;99.89;102871.50;5026141;28;20026;-75
2022/01/15 06:41:57;;;;;;;87.78;20.48;;;;;;;1.65;99.96;102881.34;5018450;28;20453;-75
2022/01/15 06:44:22;;;;;;;88.15;21.63;;;;;;;1.63;99.99;102876.00;5017562;28;20066;-74
2022/01/15 06:46:47;;;;;;;97.43;22.13;;;;;;;1.67;99.88;102871.50;5025868;28;20018;-75
2022/01/15 06:49:12;;;;;;;86.47;20.80;;;;;;;1.68;99.75;102868.81;5021455;28;20421;-75
2022/01/15 06:51:38;;;;;;;87.43;21.33;;;;;;;1.69;99.56;102870.59;5027227;28;20029;-76
2022/01/15 06:54:03;;;;;;;107.97;23.33;;;;;;;1.70;99.75;102872.38;5023451;28;20105;-75
2022/01/15 06:56:28;;;;;;;88.93;21.50;;;;;;;1.68;99.85;102870.59;5030442;28;20022;-75
2022/01/15 06:58:53;;;;;;;109.32;20.80;;;;;;;1.67;99.77;102876.84;5023569;28;20060;-75
2022/01/15 07:01:19;;;;;;;83.88;21.08;;;;;;;1.63;99.82;102870.63;5024332;28;20021;-75
2022/01/15 07:03:44;;;;;;;99.65;20.45;;;;;;;1.65;99.87;102866.16;5028946;28;20017;-75
2022/01/15 07:06:09;;;;;;;91.00;19.60;;;;;;;1.62;100.00;102863.47;5017720;28;20390;-76
2022/01/15 07:08:35;;;;;;;81.68;20.95;;;;;;;1.61;99.97;102868.84;5030095;28;20025;-75
2022/01/15 07:11:00;;;;;;;108.90;24.42;;;;;;;1.60;99.98;102869.75;5018749;28;20021;-74
2022/01/15 07:13:26;;;;;;;108.20;22.38;;;;;;;1.60;100.00;102869.75;5028535;28;20736;-74
2022/01/15 07:15:52;;;;;;;136.15;24.63;;;;;;;1.59;100.00;102868.84;5016644;28;20034;-74
2022/01/15 07:18:17;;;;;;;143.75;22.15;;;;;;;1.56;100.00;102865.28;5030494;28;20030;-75
2022/01/15 07:20:43;;;;;;;145.52;23.10;;;;;;;1.57;100.00;102875.09;5016136;28;20032;-75
2022/01/15 07:23:09;;;;;;;133.55;24.35;;;;;;;1.56;100.00;102871.53;5025907;28;20025;-75
2022/01/15 07:25:34;;;;;;;105.88;22.60;;;;;;;1.58;100.00;102868.84;5022320;28;20032;-75
2022/01/15 07:28:00;;;;;;;90.18;20.75;;;;;;;1.60;100.00;102867.06;5024884;28;20125;-75
2022/01/15 07:30:25;;;;;;;92.57;20.38;;;;;;;1.59;100.00;102868.84;5019606;28;20037;-75
2022/01/15 07:32:50;;;;;;;84.55;19.00;;;;;;;1.61;100.00;102876.88;5028968;28;20059;-75
2022/01/15 07:35:16;;;;;;;82.00;16.90;;;;;;;1.57;99.95;102869.75;5013478;28;20026;-75
2022/01/15 07:37:41;;;;;;;76.43;18.17;;;;;;;1.57;99.90;102867.94;5015614;28;20042;-74
2022/01/15 07:40:08;;;;;;;63.92;17.10;;;;;;;1.57;99.81;102870.63;5009811;28;20018;-74
2022/01/15 07:42:39;;;;;;;70.60;15.65;;;;;;;1.52;99.79;102867.06;5015669;28;20033;-74
2022/01/15 07:45:10;;;;;;;77.45;14.55;;;;;;;1.48;99.66;102866.16;5016752;28;20026;-75
2022/01/15 07:47:37;;;;;;;72.40;15.65;;;;;;;1.46;99.75;102869.78;5028621;28;20059;-75
2022/01/15 07:50:04;;;;;;;56.72;13.68;;;;;;;1.42;99.67;102873.34;5027621;28;20366;-74
2022/01/15 07:52:30;;;;;;;80.32;14.48;;;;;;;1.40;99.65;102872.44;5027725;28;20487;-74
2022/01/15 07:54:58;;;;;;;87.30;15.00;;;;;;;1.37;100.00;102880.50;5027327;28;20041;-75
2022/01/15 07:57:23;;;;;;;81.75;13.65;;;;;;;1.35;99.78;102875.13;5027254;28;20044;-75
2022/01/15 07:59:50;;;;;;;89.38;12.70;;;;;;;1.36;99.87;102878.75;5025031;28;20025;-75
2022/01/15 08:02:16;;;;;;;65.85;12.25;;;;;;;1.34;100.00;102876.03;5026986;28;20104;-75
2022/01/15 08:04:41;;;;;;;53.53;12.95;;;;;;;1.36;100.00;102881.41;5027519;28;20552;-75
2022/01/15 08:07:09;;;;;;;49.72;12.73;;;;;;;1.36;100.00;102873.38;5027560;28;20025;-75
2022/01/15 08:09:34;;;;;;;63.40;14.45;;;;;;;1.36;99.93;102866.22;5027215;28;20499;-74
2022/01/15 08:11:59;;;;;;;61.92;12.27;;;;;;;1.38;99.53;102869.78;5026184;28;20013;-75
2022/01/15 08:14:25;;;;;;;59.90;13.55;;;;;;;1.34;99.81;102875.16;5012584;28;20088;-74
2022/01/15 08:16:50;;;;;;;54.40;12.55;;;;;;;1.29;99.67;102867.09;5009014;28;20052;-75
2022/01/15 08:19:15;;;;;;;55.55;11.02;;;;;;;1.30;99.50;102871.56;5016690;28;20036;-74
2022/01/15 08:21:42;;;;;;;72.60;11.98;;;;;;;1.29;99.48;102867.09;5016807;28;20109;-74
2022/01/15 08:24:08;;;;;;;41.72;10.13;;;;;;;1.26;99.39;102868.03;5026459;28;20025;-75
2022/01/15 08:26:33;;;;;;;46.65;11.02;;;;;;;1.20;99.14;102864.44;5026196;28;20024;-76
2022/01/15 08:28:59;;;;;;;45.15;10.60;;;;;;;1.22;99.23;102865.34;5018066;28;20116;-75
2022/01/15 08:31:25;;;;;;;39.65;9.50;;;;;;;1.20;99.18;102865.31;5025603;28;20032;-74
2022/01/15 08:33:50;;;;;;;55.15;10.95;;;;;;;1.18;99.06;102866.25;5008768;28;20104;-75
2022/01/15 08:36:17;;;;;;;47.10;10.43;;;;;;;1.14;99.22;102851.94;5007289;28;20389;-75
2022/01/15 08:38:42;;;;;;;74.72;13.65;;;;;;;1.18;99.11;102866.25;5008856;28;20037;-75
2022/01/15 08:41:08;;;;;;;49.13;12.95;;;;;;;1.14;99.26;102868.03;5008685;28;20100;-74
2022/01/15 08:43:33;;;;;;;54.28;11.93;;;;;;;1.15;99.44;102867.13;5008803;28;20375;-74
2022/01/15 08:45:58;;;;;;;49.15;11.52;;;;;;;1.15;99.52;102869.81;5014627;28;20036;-75
2022/01/15 08:48:23;;;;;;;42.00;12.95;;;;;;;1.18;99.07;102869.81;5009386;28;20029;-76
2022/01/15 08:50:49;;;;;;;58.05;12.32;;;;;;;1.15;98.92;102867.13;5008472;28;20028;-74
2022/01/15 08:53:17;;;;;;;43.72;12.55;;;;;;;1.16;98.92;102868.91;5013100;28;20026;-75
2022/01/15 08:55:43;;;;;;;50.17;12.43;;;;;;;1.13;98.86;102866.25;5025756;28;20103;-76
2022/01/15 08:58:10;;;;;;;52.40;13.70;;;;;;;1.12;98.86;102868.91;5036097;28;20042;-76
2022/01/15 09:00:35;;;;;;;58.90;13.82;;;;;;;1.13;98.76;102868.03;5013490;28;20026;-74
2022/01/15 09:03:01;;;;;;;63.90;14.82;;;;;;;1.10;98.77;102860.88;5021468;28;20265;-73
2022/01/15 09:05:26;;;;;;;35.20;13.32;;;;;;;1.11;98.84;102865.34;5015278;28;20370;-76
2022/01/15 09:07:52;;;;;;;41.60;14.60;;;;;;;1.09;98.92;102861.78;5026633;28;20468;-76
2022/01/15 09:10:17;;;;;;;46.25;14.93;;;;;;;1.11;98.81;102872.47;5027254;28;20036;-74
2022/01/15 09:12:43;;;;;;;44.13;14.15;;;;;;;1.09;98.83;102867.13;5025602;28;20079;-75
2022/01/15 09:15:09;;;;;;;43.33;13.75;;;;;;;1.09;98.74;102856.41;5006834;28;20030;-74
2022/01/15 09:17:34;;;;;;;42.10;13.75;;;;;;;1.04;98.78;102855.53;5026827;28;20366;-76
2022/01/15 09:20:00;;;;;;;44.22;14.00;;;;;;;1.06;98.54;102858.19;5025864;28;20025;-76
2022/01/15 09:22:25;;;;;;;47.72;15.68;;;;;;;1.04;98.46;102855.53;5013598;28;20084;-73
2022/01/15 09:24:51;;;;;;;57.10;15.95;;;;;;;1.06;98.74;102851.03;5017373;28;20017;-74
2022/01/15 09:30:13;;;;;;;49.75;14.68;;;;;;;1.07;98.47;102835.84;5009741;28;20124;-73
2022/01/15 09:32:50;;;;;;;47.92;16.13;;;;;;;1.12;98.53;102840.34;5013460;28;20442;-74
2022/01/15 09:35:20;;;;;;;54.58;16.88;;;;;;;1.12;98.43;102829.63;5017440;28;20054;-76
2022/01/15 09:37:47;;;;;;;50.22;17.65;;;;;;;1.13;98.45;102834.09;5007447;28;20028;-74
2022/01/15 09:40:13;;;;;;;55.13;17.60;;;;;;;1.15;98.51;102823.34;5007345;28;20034;-75
2022/01/15 09:42:39;;;;;;;44.58;17.35;;;;;;;1.14;98.40;102830.50;5007534;28;20084;-75
2022/01/15 09:45:07;;;;;;;55.67;16.08;;;;;;;1.15;98.52;102831.38;5009584;28;20585;-73
2022/01/15 09:47:32;;;;;;;45.50;16.77;;;;;;;1.15;98.55;102826.03;5026701;28;20033;-74
2022/01/15 09:49:58;;;;;;;52.83;17.88;;;;;;;1.14;98.37;102821.56;5020618;28;20089;-73
2022/01/15 09:52:24;;;;;;;50.33;18.23;;;;;;;1.15;98.36;102829.59;5021204;28;20034;-74
2022/01/15 09:54:50;;;;;;;59.50;17.40;;;;;;;1.14;98.43;102834.97;5016046;28;20041;-73
2022/01/15 09:57:16;;;;;;;47.92;16.77;;;;;;;1.13;98.68;102828.72;5022296;28;20607;-74
2022/01/15 09:59:42;;;;;;;52.38;18.33;;;;;;;1.19;98.66;102838.53;5024208;28;20041;-75
2022/01/15 10:02:07;;;;;;;48.17;16.90;;;;;;;1.23;98.70;102837.63;5027850;28;20458;-75
2022/01/15 10:04:35;;;;;;;56.00;17.88;;;;;;;1.23;98.42;102832.28;5020378;28;20033;-75
2022/01/15 10:07:20;;;;;;;55.25;16.75;;;;;;;1.24;98.40;102831.38;5026196;28;20017;-75
2022/01/15 10:09:46;;;;;;;47.22;17.15;;;;;;;1.23;98.37;102824.22;5011124;28;20032;-74
2022/01/15 10:12:24;;;;;;;48.83;17.88;;;;;;;1.24;98.43;102829.59;5024465;28;20132;-74
2022/01/15 10:14:49;;;;;;;68.80;18.90;;;;;;;1.27;98.53;102840.31;5006192;28;20503;-76
2022/01/15 10:17:22;;;;;;;55.75;18.33;;;;;;;1.27;98.60;102834.94;5007034;28;20049;-74
2022/01/15 10:19:48;;;;;;;60.88;18.48;;;;;;;1.27;98.41;102836.75;5007186;28;20074;-75
2022/01/15 10:22:22;;;;;;;51.15;16.70;;;;;;;1.33;98.54;102834.03;5011001;28;20584;-75
2022/01/15 10:25:05;;;;;;;54.33;19.02;;;;;;;1.37;98.80;102832.25;5027788;28;20034;-76
2022/01/15 10:27:35;;;;;;;56.55;18.25;;;;;;;1.44;98.91;102831.31;5025841;28;20029;-75
2022/01/15 10:30:14;;;;;;;52.45;18.52;;;;;;;1.48;98.60;102820.56;5016272;28;20060;-75
2022/01/15 10:32:52;;;;;;;60.38;19.17;;;;;;;1.52;98.64;102821.47;5030996;28;20036;-75
2022/01/15 10:35:18;;;;;;;55.35;18.92;;;;;;;1.52;98.37;102816.09;5025428;28;20040;-75
2022/01/15 10:37:52;;;;;;;59.28;18.65;;;;;;;1.52;98.21;102818.78;5027655;28;20029;-73
2022/01/15 10:40:20;;;;;;;54.92;18.15;;;;;;;1.53;98.41;102809.84;5026599;28;20072;-73
2022/01/15 10:43:00;;;;;;;52.22;18.80;;;;;;;1.51;98.37;102814.31;5025532;28;20112;-75
2022/01/15 10:45:31;;;;;;;56.92;18.48;;;;;;;1.52;98.35;102811.63;5018572;28;20056;-74
2022/01/15 10:47:58;;;;;;;78.90;19.17;;;;;;;1.55;98.57;102812.53;5010979;28;20457;-75
2022/01/15 10:50:27;;;;;;;58.10;19.95;;;;;;;1.53;98.25;102817.88;5026151;28;20025;-75
2022/01/15 10:52:54;;;;;;;53.10;18.88;;;;;;;1.50;98.23;102816.13;5029348;28;20079;-74
2022/01/15 10:55:28;;;;;;;57.97;19.42;;;;;;;1.55;98.43;102817.91;5030365;28;20052;-75
2022/01/15 10:57:56;;;;;;;60.22;19.02;;;;;;;1.59;98.38;102814.31;5022767;28;20472;-74
2022/01/15 11:00:29;;;;;;;70.57;21.17;;;;;;;1.61;98.25;102816.06;5014504;28;20057;-75
2022/01/15 11:02:57;;;;;;;;;;;;;;;1.66;98.29;102798.16;5013063;28;20421;-75
2022/01/15 11:05:25;;;;;;;62.28;19.38;;;;;;;1.69;98.32;102800.84;5009843;28;20389;-75
2022/01/15 11:07:54;;;;;;;58.50;18.33;;;;;;;1.68;98.05;102791.03;5010217;28;20042;-75
2022/01/15 11:10:19;;;;;;;63.08;18.55;;;;;;;1.69;98.34;102786.56;5021407;28;20078;-75
2022/01/15 11:12:44;;;;;;;61.90;21.38;;;;;;;1.70;98.30;102789.22;5024034;28;20033;-73
2022/01/15 11:15:10;;;;;;;56.65;17.95;;;;;;;1.71;98.11;102784.72;5016532;28;20038;-74
2022/01/15 11:17:36;;;;;;;60.45;17.90;;;;;;;1.69;98.20;102781.19;5009734;28;20441;-74
2022/01/15 11:20:05;;;;;;;57.03;18.65;;;;;;;1.72;98.24;102784.72;5027746;28;20026;-73
2022/01/15 11:22:31;;;;;;;58.53;17.45;;;;;;;1.73;97.94;102783.84;5015284;28;20029;-75
2022/01/15 11:24:57;;;;;;;56.92;18.08;;;;;;;1.76;98.42;102780.25;5028037;28;20041;-74
2022/01/15 11:27:26;;;;;;;60.03;19.38;;;;;;;1.78;98.05;102786.50;5014493;28;20044;-75
2022/01/15 11:29:54;;;;;;;62.03;18.48;;;;;;;1.76;97.89;102778.44;5010927;28;20034;-75
2022/01/15 11:32:20;;;;;;;81.35;20.90;;;;;;;1.76;97.97;102780.25;5015578;28;20033;-75
2022/01/15 11:35:06;;;;;;;67.40;19.33;;;;;;;1.79;97.92;102777.56;5013167;28;20489;-74